• Join FlightAware (Why Join?)
  • Login
  • US Flag 
Rudolph Flight #1: Arrived! 
11:15AM EST


 

Airport Tracker/Info


-or-


 

Live Flight TrackerFlight Track Log ✈ N5091V ✈ 28-Apr-2013 ✈ KHHG - KOSU

Flight Track Log - Related Links

Times and Time Zones

All times are in EDT time to prevent confusion due to time zone crossing. See the N5091V flight status page for this flight to view local times or setup timezone preferences in your user account.

Time Position Orientation Groundspeed Altitude Reporting Facility
EDT Latitude Longitude Course Direction KTS MPH feet Rate Location/Type
01:58PM 40.8181 -85.3369 113° Southeast 145 167 2,300  Level Chicago Center
01:59PM 40.8000 -85.2769 112° Southeast 147 169 2,800 480 Climbing Chicago Center
02:00PM 40.7844 -85.2258 112° Southeast 148 170 3,300 480 Climbing Chicago Center
02:01PM 40.7883 -85.1681 85° East 157 181 3,800 420 Climbing Chicago Center
02:02PM 40.7337 -85.0758 113° Southeast  Level FlightAware Approximate
02:02PM 40.7908 -85.1125 87° East 156 180 4,200  Level Chicago Center
02:03PM 40.7169 -85.0225 113° Southeast  Level FlightAware Approximate
02:03PM 40.7922 -85.0556 88° East 156 180 4,700  Level Chicago Center
02:04PM 40.7942 -84.9972 87° East 157 181 4,900 60 Climbing Chicago Center
02:05PM 40.8144 -84.9267 69° East 171 197 4,900  Level Chicago Center
02:06PM 40.8331 -84.8672 68° East 174 200 5,000  Climbing Chicago Center
02:07PM 40.8531 -84.8078 66° East 174 200 5,000  Level Chicago Center
02:08PM 40.8725 -84.7481 67° East 176 203 5,000  Level Chicago Center
02:09PM 40.8886 -84.6864 71° East 177 204 5,000  Level Chicago Center
02:10PM 40.8881 -84.6208 91° East 179 206 5,000  Level Chicago Center
02:11PM 40.8869 -84.5433 91° East 178 205 5,000  Level Chicago Center
02:12PM 40.8714 -84.4925 112° Southeast 177 204 5,100  Climbing Indianapolis Center
02:13PM 40.8656 -84.4233 96° East 178 205 5,100  Level Indianapolis Center
02:14PM 40.8594 -84.3572 97° East 184 212 5,100  Level Indianapolis Center
02:15PM 40.8553 -84.2911 95° East 178 205 5,100  Level Indianapolis Center
02:17PM 40.8458 -84.1619 95° East 173 199 5,100  Level Indianapolis Center
02:18PM 40.8394 -84.0822 96° East 185 213 5,100  Level Indianapolis Center
02:19PM 40.8236 -84.0200 109° East 188 216 5,100  Level Indianapolis Center
02:20PM 40.7967 -83.9825 133° Southeast 169 194 5,100  Level Indianapolis Center
02:21PM 40.7625 -83.9367 135° Southeast 172 198 5,100 -60 Level Indianapolis Center
02:22PM 40.7206 -83.8817 135° Southeast 171 197 5,000 -60 Descending Indianapolis Center
02:23PM 40.6900 -83.8419 135° Southeast 171 197 5,000  Level Indianapolis Center
02:24PM 40.6553 -83.8017 139° Southeast 164 189 5,000  Level Indianapolis Center
02:25PM 40.6228 -83.7592 135° Southeast 164 189 5,000  Level Indianapolis Center
02:27PM 40.5806 -83.7069 137° Southeast 167 192 5,000  Level Indianapolis Center
02:28PM 40.5481 -83.6644 135° Southeast 170 196 5,000  Level Indianapolis Center
02:29PM 40.5147 -83.6178 133° Southeast 170 196 5,000  Level Indianapolis Center
02:29PM 40.4908 -83.5886 137° Southeast 173 199 5,000  Level Indianapolis Center
02:30PM 40.4794 -83.5739 135° Southeast 172 198 5,000  Level Indianapolis Center
02:31PM 40.4467 -83.5339 137° Southeast 167 192 5,000 -60 Level Indianapolis Center
02:31PM 40.4197 -83.5003 136° Southeast 167 192 4,900 -240 Descending Indianapolis Center
02:32PM 40.4111 -83.4883 133° Southeast 169 194 4,800 -480 Descending Indianapolis Center
02:33PM 40.3736 -83.4428 137° Southeast 180 207 4,300 -420 Descending Indianapolis Center
02:34PM 40.3342 -83.4106 148° Southeast 169 194 4,000 -180 Descending Indianapolis Center
02:34PM 40.3086 -83.3881 146° Southeast 158 182 4,000  Level Indianapolis Center
02:35PM 40.2983 -83.3778 143° Southeast 165 190 4,000 -120 Level Indianapolis Center
02:35PM 40.2728 -83.3619 155° Southeast 153 176 3,900 -420 Descending Indianapolis Center
02:36PM 40.2544 -83.3481 150° Southeast 156 180 3,600 -540 Descending Indianapolis Center
02:36PM 40.2283 -83.3375 163° South 150 173 3,300 -540 Descending Indianapolis Center
02:37PM 40.2150 -83.3281 152° Southeast 152 175 3,100 -300 Descending Indianapolis Center
02:37PM 40.1928 -83.3086 146° Southeast 145 167 3,000 -120 Descending Indianapolis Center
02:38PM 40.1806 -83.2994 150° Southeast 148 170 3,000  Level Indianapolis Center
02:38PM 40.1581 -83.2961 174° South 129 148 3,000  Level Indianapolis Center
02:39PM 40.1456 -83.2978 186° South 135 155 3,000  Level Indianapolis Center
02:40PM 40.1244 -83.2978 180° South 122 140 3,000  Level Indianapolis Center
02:40PM 40.1128 -83.2967 176° South 123 142 3,000  Level Indianapolis Center
02:41PM 40.0931 -83.2967 180° South 104 120 3,000  Level Indianapolis Center
02:41PM 40.0886 -83.2814 111° Southeast 123 142 3,000  Level Indianapolis Center
02:42PM 40.0858 -83.2522 97° East 123 142 3,000  Level Indianapolis Center
02:42PM 40.0811 -83.2386 114° Southeast 123 142 3,000  Level Indianapolis Center
02:43PM 40.0717 -83.2122 115° Southeast 125 144 3,000 -240 Level Indianapolis Center
02:43PM 40.0708 -83.1986 95° East 119 137 2,800 -840 Descending Indianapolis Center
02:44PM 40.0750 -83.1664 80° East 138 159 2,200 -900 Descending Indianapolis Center
02:44PM 40.0758 -83.1431 87° East 128 147 1,900 -600 Descending Indianapolis Center
02:45PM 40.0756 -83.1283 91° East 99 114 1,600 -420 Descending Indianapolis Center
02:45PM 40.0761 -83.1139 87° East 113 130 1,500 -420 Descending Indianapolis Center
02:46PM 40.0758 -83.0956 91° East 84 97 1,200 -420 Descending Indianapolis Center
02:46PM 40.0761 -83.0756 89° East 103 119 1,100 -240 Descending Indianapolis Center
02:48PM 40.0798 -83.0732 96° East  Level Estimated